.
WxDataArchive / Data Records for 2010-07-11
2010-07-10 July 2010 2010-07-12

Data Records for Sunday, 11 July 2010

Time	Temp	Chill	HIndex	Humid	Dewpt	 Wind 	HiWind	WindDir	Rain 	Barom 
-----	----	-----	------	-----	-----	------	------	-------	-----	----- 
00:00	71.8	71.8	71.8	77	64.2	0	0	---	0.00	29.928 
00:05	71.6	71.6	71.6	77	64.0	0	0	---	0.00	29.928 
00:10	71.5	71.5	71.5	78	64.3	0	0	---	0.00	29.928 
00:15	71.3	71.3	71.3	79	64.4	0	0	---	0.00	29.923 
00:20	71.1	71.1	71.1	79	64.2	0	0	---	0.00	29.923 
00:25	70.9	70.9	70.9	80	64.4	0	0	---	0.00	29.923 
00:30	70.8	70.8	70.8	81	64.7	0	0	---	0.00	29.926 
00:35	70.4	70.4	70.4	81	64.3	0	0	---	0.00	29.926 
00:40	70.3	70.3	70.3	81	64.2	0	0	---	0.00	29.926 
00:45	70.3	70.3	70.3	82	64.5	0	0	---	0.00	29.924 
00:50	70.1	70.1	70.1	83	64.7	0	0	---	0.00	29.924 
00:55	69.9	69.9	69.9	83	64.5	0	0	---	0.00	29.924 
01:00	69.8	69.8	69.8	84	64.7	0	0	---	0.00	29.919 
01:05	69.6	69.6	69.6	84	64.5	0	0	---	0.00	29.919 
01:10	69.4	69.4	69.4	84	64.3	0	0	---	0.00	29.919 
01:15	69.3	69.3	69.3	84	64.2	0	0	---	0.00	29.912 
01:20	69.3	69.3	69.3	85	64.6	0	0	---	0.00	29.912 
01:25	69.1	69.1	69.1	85	64.4	0	0	---	0.00	29.912 
01:30	69.1	69.1	69.1	86	64.7	0	0	---	0.00	29.910 
01:35	69.1	69.1	69.1	86	64.7	0	0	---	0.00	29.910 
01:40	69.1	69.1	69.1	86	64.7	0	0	---	0.00	29.910 
01:45	69.1	69.1	69.1	87	65.1	0	0	---	0.00	29.912 
01:50	69.1	69.1	69.1	87	65.1	0	0	---	0.00	29.912 
01:55	69.1	69.1	69.1	87	65.1	0	0	---	0.00	29.912 
02:00	69.1	69.1	69.1	87	65.1	0	0	---	0.00	29.911 
02:05	69.1	69.1	69.1	87	65.1	0	0	---	0.00	29.911 
02:10	68.9	68.9	68.9	87	64.9	0	0	---	0.00	29.911 
02:15	68.9	68.9	68.9	87	64.9	0	0	---	0.00	29.912 
02:20	68.9	68.9	68.9	87	64.9	0	0	---	0.00	29.912 
02:25	68.8	68.8	68.8	87	64.8	0	0	---	0.00	29.912 
02:30	68.8	68.8	68.8	88	65.1	0	0	---	0.00	29.912 
02:35	68.6	68.6	68.6	88	64.9	0	0	---	0.00	29.912 
02:40	68.6	68.6	68.6	88	64.9	0	0	---	0.00	29.912 
02:45	68.4	68.4	68.4	88	64.7	0	0	---	0.00	29.905 
02:50	68.4	68.4	68.4	88	64.7	0	0	---	0.00	29.905 
02:55	68.3	68.3	68.3	88	64.6	0	0	---	0.00	29.905 
03:00	68.1	68.1	68.1	88	64.4	0	0	---	0.00	29.908 
03:05	68.1	68.1	68.1	88	64.4	0	0	---	0.00	29.908 
03:10	67.9	67.9	67.9	89	64.5	0	0	---	0.00	29.908 
03:15	67.9	67.9	67.9	89	64.5	0	0	---	0.00	29.908 
03:20	67.8	67.8	67.8	89	64.4	0	0	---	0.00	29.908 
03:25	67.8	67.8	67.8	89	64.4	0	0	---	0.00	29.908 
03:30	67.6	67.6	67.6	90	64.6	0	0	---	0.00	29.912 
03:35	67.6	67.6	67.6	89	64.2	0	0	---	0.00	29.912 
03:40	67.6	67.6	67.6	90	64.6	0	0	---	0.00	29.912 
03:45	67.4	67.4	67.4	90	64.4	0	0	---	0.00	29.911 
03:50	67.4	67.4	67.4	90	64.4	0	0	---	0.00	29.911 
03:55	67.3	67.3	67.3	91	64.6	0	0	---	0.00	29.911 
04:00	67.3	67.3	67.3	91	64.6	0	0	---	0.00	29.907 
04:05	67.3	67.3	67.3	91	64.6	0	0	---	0.00	29.907 
04:10	67.1	67.1	67.1	91	64.4	0	0	---	0.00	29.907 
04:15	67.1	67.1	67.1	91	64.4	0	0	---	0.00	29.908 
04:20	66.9	66.9	66.9	91	64.2	0	0	---	0.00	29.908 
04:25	66.9	66.9	66.9	91	64.2	0	0	---	0.00	29.908 
04:30	66.9	66.9	66.9	92	64.5	0	0	---	0.00	29.910 
04:35	67.1	67.1	67.1	92	64.7	0	0	---	0.00	29.910 
04:40	67.3	67.3	67.3	92	64.9	0	0	---	0.00	29.910 
04:45	67.3	67.3	67.3	92	64.9	0	0	---	0.00	29.908 
04:50	67.3	67.3	67.3	92	64.9	0	0	---	0.00	29.908 
04:55	67.3	67.3	67.3	92	64.9	0	0	---	0.00	29.908 
05:00	67.3	67.3	67.3	92	64.9	0	0	---	0.00	29.899 
05:05	67.3	67.3	67.3	92	64.9	0	0	---	0.00	29.899 
05:10	67.3	67.3	67.3	92	64.9	0	0	---	0.00	29.899 
05:15	67.1	67.1	67.1	92	64.7	0	0	---	0.00	29.906 
05:20	67.1	67.1	67.1	92	64.7	0	0	---	0.00	29.906 
05:25	66.9	66.9	66.9	92	64.5	0	0	---	0.00	29.906 
05:30	66.9	66.9	66.9	92	64.5	0	0	---	0.00	29.902 
05:35	66.8	66.8	66.8	92	64.4	0	0	---	0.00	29.902 
05:40	66.8	66.8	66.8	92	64.4	0	0	---	0.00	29.902 
05:45	66.6	66.6	66.6	92	64.2	0	0	---	0.00	29.906 
05:50	66.4	66.4	66.4	92	64.0	0	0	---	0.00	29.906 
05:55	66.4	66.4	66.4	92	64.0	0	0	---	0.00	29.906 
06:00	66.3	66.3	66.3	92	63.9	0	0	---	0.00	29.911 
06:05	66.1	66.1	66.1	92	63.7	0	0	---	0.00	29.911 
06:10	66.1	66.1	66.1	92	63.7	0	0	---	0.00	29.911 
06:15	66.1	66.1	66.1	93	64.0	0	0	---	0.00	29.907 
06:20	66.0	66.0	66.0	93	63.9	0	0	---	0.00	29.907 
06:25	65.8	65.8	65.8	93	63.7	0	0	---	0.00	29.907 
06:30	65.8	65.8	65.8	93	63.7	0	0	---	0.00	29.907 
06:35	65.6	65.6	65.6	93	63.5	0	0	---	0.00	29.907 
06:40	65.6	65.6	65.6	93	63.5	0	0	---	0.00	29.907 
06:45	65.6	65.6	65.6	93	63.5	0	0	---	0.00	29.908 
06:50	65.5	65.5	65.5	94	63.7	0	0	---	0.00	29.908 
06:55	65.6	65.6	65.6	94	63.8	0	0	---	0.00	29.908 
07:00	65.6	65.6	65.6	94	63.8	0	0	---	0.00	29.905 
07:05	65.8	65.8	65.8	94	64.0	0	0	---	0.00	29.905 
07:10	65.8	65.8	65.8	94	64.0	0	0	---	0.00	29.905 
07:15	66.0	66.0	66.0	94	64.2	0	0	---	0.00	29.899 
07:20	66.1	66.1	66.1	94	64.3	0	0	---	0.00	29.899 
07:25	66.4	66.4	66.4	95	64.9	0	0	---	0.00	29.899 
07:30	66.8	66.8	66.8	94	65.0	0	0	---	0.00	29.899 
07:35	67.4	67.4	67.4	94	65.6	0	0	---	0.00	29.899 
07:40	68.3	68.3	68.3	92	65.9	0	0	---	0.00	29.899 
07:45	68.4	68.4	68.4	90	65.3	0	0	---	0.00	29.899 
07:50	68.9	68.9	68.9	89	65.5	0	0	---	0.00	29.899 
07:55	69.4	69.4	69.4	88	65.7	0	0	---	0.00	29.899 
08:00	69.9	69.9	69.9	86	65.5	0	0	---	0.00	29.902 
08:05	70.6	70.6	70.6	84	65.5	0	0	---	0.00	29.902 
08:10	71.1	71.1	71.1	82	65.3	0	0	---	0.00	29.902 
08:15	71.8	71.8	71.8	81	65.6	0	0	---	0.00	29.904 
08:20	72.5	72.5	72.5	79	65.6	0	0	---	0.00	29.904 
08:25	73.0	73.0	73.0	77	65.3	0	0	---	0.00	29.904 
08:30	73.7	73.7	73.7	76	65.6	0	0	---	0.00	29.904 
08:35	74.4	74.4	74.4	73	65.2	0	0	---	0.00	29.904 
08:40	75.1	75.1	76.7	71	65.0	0	0	---	0.00	29.904 
08:45	75.8	75.8	77.4	70	65.3	0	0	---	0.00	29.896 
08:50	76.3	76.3	78.0	69	65.4	0	0	---	0.00	29.896 
08:55	77.0	77.0	78.8	65	64.3	0	0	---	0.00	29.896 
09:00	77.6	77.6	79.4	65	64.9	0	1	338	0.00	29.893 
09:05	78.1	78.1	79.9	64	64.9	0	2	338	0.00	29.893 
09:10	78.6	78.6	80.4	63	64.9	0	2	338	0.00	29.893 
09:15	79.0	79.0	80.8	61	64.4	0	2	338	0.00	29.895 
09:20	79.4	79.4	81.0	59	63.8	0	2	270	0.00	29.895 
09:25	79.4	79.4	81.0	59	63.8	0	1	270	0.00	29.895 
09:30	79.4	79.4	80.9	58	63.3	0	1	270	0.00	29.896 
09:35	79.6	79.6	81.2	58	63.5	0	1	270	0.00	29.896 
09:40	79.8	79.8	81.2	56	62.7	0	1	270	0.00	29.896 
09:45	80.3	80.3	81.8	57	63.7	0	1	270	0.00	29.895 
09:50	81.2	81.2	82.5	54	62.9	0	2	270	0.00	29.895 
09:55	81.6	81.6	82.5	51	61.7	0	2	270	0.00	29.895 
10:00	81.4	81.4	82.3	51	61.5	1	3	270	0.00	29.899 
10:05	81.1	81.1	82.2	53	62.3	1	4	270	0.00	29.899 
10:10	80.9	80.9	81.9	52	61.6	1	3	270	0.00	29.899 
10:15	80.9	80.9	81.9	52	61.6	1	3	270	0.00	29.902 
10:20	81.1	81.1	81.8	50	60.7	1	3	270	0.00	29.902 
10:25	81.6	81.6	82.3	50	61.1	0	2	270	0.00	29.902 
10:30	82.0	82.0	82.5	48	60.3	1	3	270	0.00	29.909 
10:35	82.0	82.0	82.5	48	60.3	1	3	292	0.00	29.909 
10:40	81.8	81.8	82.3	48	60.2	1	4	292	0.00	29.909 
10:45	82.6	82.6	83.0	47	60.3	1	2	315	0.00	29.904 
10:50	83.2	83.2	83.6	47	60.8	0	3	315	0.00	29.904 
10:55	83.8	83.8	84.1	46	60.8	0	2	68	0.00	29.904 
11:00	84.1	84.1	84.3	45	60.4	0	2	45	0.00	29.903 
11:05	84.3	84.3	84.3	44	60.0	0	3	0	0.00	29.903 
11:10	84.0	84.0	84.0	44	59.7	1	4	270	0.00	29.903 
11:15	83.8	83.8	83.6	43	58.9	1	4	270	0.00	29.901 
11:20	83.8	83.8	83.4	42	58.2	1	4	270	0.00	29.901 
11:25	84.0	84.0	83.8	43	59.1	1	3	270	0.00	29.901 
11:30	84.3	84.3	83.9	42	58.7	1	3	338	0.00	29.898 
11:35	84.3	84.3	83.9	42	58.7	1	2	292	0.00	29.898 
11:40	84.3	84.3	83.9	42	58.7	1	4	270	0.00	29.898 
11:45	85.1	85.1	84.8	42	59.4	1	2	270	0.00	29.900 
11:50	85.5	85.5	85.7	44	61.1	1	3	248	0.00	29.900 
11:55	85.1	85.1	85.0	43	60.1	1	2	248	0.00	29.900 
12:00	85.1	85.1	85.0	43	60.1	1	3	270	0.00	29.901 
12:05	85.1	85.1	84.6	41	58.7	1	3	270	0.00	29.901 
12:10	85.3	85.3	84.7	40	58.2	1	3	338	0.00	29.901 
12:15	85.3	85.3	85.0	42	59.6	1	3	338	0.00	29.900 
12:20	85.7	85.7	85.1	40	58.6	1	4	112	0.00	29.900 
12:25	85.7	85.7	84.7	38	57.1	1	6	90	0.00	29.900 
12:30	85.7	85.7	85.1	40	58.6	1	4	270	0.00	29.897 
12:35	86.1	86.1	85.4	39	58.2	1	3	68	0.00	29.897 
12:40	85.9	85.9	85.1	39	58.0	1	3	292	0.00	29.897 
12:45	85.9	85.9	86.0	43	60.8	1	2	292	0.00	29.894 
12:50	85.7	85.7	85.1	40	58.6	1	2	248	0.00	29.894 
12:55	85.9	85.9	85.3	40	58.7	1	3	248	0.00	29.894 
13:00	86.3	86.3	85.6	39	58.4	0	2	90	0.00	29.886 
13:05	87.0	87.0	86.4	39	59.0	0	2	0	0.00	29.886 
13:10	87.2	87.2	86.4	38	58.5	0	3	270	0.00	29.886 
13:15	87.4	87.4	86.9	39	59.4	2	4	90	0.00	29.878 
13:20	87.4	87.4	87.6	42	61.5	1	3	112	0.00	29.878 
13:25	87.2	87.2	86.4	38	58.5	1	4	112	0.00	29.878 
13:30	87.4	87.4	86.9	39	59.4	0	2	248	0.00	29.875 
13:35	87.6	87.6	86.9	38	58.8	2	4	90	0.00	29.875 
13:40	87.6	87.6	87.1	39	59.5	1	4	112	0.00	29.875 
13:45	87.4	87.4	87.1	40	60.1	1	5	90	0.00	29.867 
13:50	87.4	87.4	86.4	37	57.9	1	2	90	0.00	29.867 
13:55	87.6	87.6	86.9	38	58.8	1	5	90	0.00	29.867 
14:00	87.2	87.2	86.2	37	57.7	1	3	90	0.00	29.865 
14:05	87.0	87.0	87.1	42	61.1	0	3	90	0.00	29.865 
14:10	87.0	87.0	87.1	42	61.1	0	2	90	0.00	29.865 
14:15	86.5	86.5	86.5	42	60.6	1	3	270	0.00	29.862 
14:20	85.9	85.9	86.0	43	60.8	1	3	270	0.00	29.862 
14:25	85.9	85.9	86.2	44	61.4	0	1	315	0.00	29.862 
14:30	86.3	86.3	86.0	41	59.8	1	3	135	0.00	29.856 
14:35	86.3	86.3	86.5	43	61.1	1	3	112	0.00	29.856 
14:40	85.9	85.9	86.4	45	62.1	0	2	248	0.00	29.856 
14:45	85.9	85.9	86.2	44	61.4	0	3	90	0.00	29.851 
14:50	86.1	86.1	86.5	44	61.6	0	3	68	0.00	29.851 
14:55	86.3	86.3	86.5	43	61.1	1	3	90	0.00	29.851 
15:00	86.3	86.3	86.5	43	61.1	1	5	270	0.00	29.847 
15:05	85.9	85.9	85.5	41	59.4	2	4	135	0.00	29.847 
15:10	85.5	85.5	85.7	44	61.1	1	3	112	0.00	29.847 
15:15	85.7	85.7	86.4	46	62.5	0	2	112	0.00	29.842 
15:20	86.3	86.3	86.5	43	61.1	2	4	292	0.00	29.842 
15:25	86.3	86.3	86.5	43	61.1	2	4	270	0.00	29.842 
15:30	87.0	87.0	87.1	42	61.1	1	5	112	0.00	29.830 
15:35	87.4	87.4	87.1	40	60.1	1	4	112	0.00	29.830 
15:40	87.2	87.2	86.9	40	59.9	1	4	270	0.00	29.830 
15:45	86.3	86.3	86.5	43	61.1	1	3	270	0.00	29.824 
15:50	85.7	85.7	86.2	45	61.9	1	2	270	0.00	29.824 
15:55	85.3	85.3	85.9	46	62.1	2	5	90	0.00	29.824 
16:00	85.1	85.1	85.9	47	62.6	1	4	248	0.00	29.824 
16:05	84.7	84.7	85.6	48	62.8	1	4	90	0.00	29.824 
16:10	84.1	84.1	85.0	49	62.8	1	4	90	0.00	29.824 
16:15	84.0	84.0	84.9	49	62.8	1	3	338	0.00	29.821 
16:20	83.8	83.8	84.7	49	62.6	1	5	68	0.00	29.821 
16:25	83.6	83.6	84.4	49	62.4	1	4	135	0.00	29.821 
16:30	83.6	83.6	84.4	49	62.4	1	4	112	0.00	29.817 
16:35	83.2	83.2	84.1	50	62.6	1	5	292	0.00	29.817 
16:40	82.8	82.8	83.5	49	61.7	1	4	292	0.00	29.817 
16:45	83.0	83.0	83.9	50	62.4	1	3	248	0.00	29.816 
16:50	83.4	83.4	84.4	50	62.8	1	3	248	0.00	29.816 
16:55	83.8	83.8	84.9	50	63.1	1	3	90	0.00	29.816 
17:00	84.0	84.0	85.1	50	63.3	1	4	270	0.00	29.805 
17:05	84.5	84.5	85.8	50	63.8	0	2	270	0.00	29.805 
17:10	84.7	84.7	85.8	49	63.4	0	3	270	0.00	29.805 
17:15	84.9	84.9	85.6	47	62.4	1	4	270	0.00	29.798 
17:20	84.9	84.9	85.6	47	62.4	1	3	270	0.00	29.798 
17:25	84.9	84.9	85.6	47	62.4	0	1	292	0.00	29.798 
17:30	84.7	84.7	85.2	46	61.6	1	2	292	0.00	29.801 
17:35	84.3	84.3	85.1	48	62.4	1	3	292	0.00	29.801 
17:40	84.0	84.0	84.9	49	62.8	1	3	292	0.00	29.801 
17:45	84.0	84.0	84.7	48	62.2	0	2	292	0.00	29.797 
17:50	84.1	84.1	84.8	48	62.3	0	2	292	0.00	29.797 
17:55	84.7	84.7	86.3	51	64.5	1	2	292	0.00	29.797 
18:00	85.3	85.3	85.9	46	62.1	1	3	270	0.00	29.791 
18:05	85.1	85.1	85.9	47	62.6	1	4	270	0.00	29.791 
18:10	84.7	84.7	85.4	47	62.2	1	3	248	0.00	29.791 
18:15	84.5	84.5	85.6	49	63.2	0	2	225	0.00	29.789 
18:20	84.3	84.3	85.1	48	62.4	1	2	292	0.00	29.789 
18:25	84.1	84.1	85.0	49	62.8	0	2	292	0.00	29.789 
18:30	84.0	84.0	84.9	49	62.8	1	4	270	0.00	29.787 
18:35	83.4	83.4	84.2	49	62.2	1	3	270	0.00	29.787 
18:40	83.2	83.2	84.5	52	63.7	0	1	270	0.00	29.787 
18:45	83.0	83.0	84.1	51	63.0	0	1	270	0.00	29.775 
18:50	82.8	82.8	84.0	52	63.3	0	1	270	0.00	29.775 
18:55	82.8	82.8	84.4	54	64.4	0	1	270	0.00	29.775 
19:00	82.8	82.8	84.4	54	64.4	0	1	270	0.00	29.772 
19:05	83.2	83.2	84.7	53	64.3	0	3	270	0.00	29.772 
19:10	83.4	83.4	84.8	52	63.9	0	1	270	0.00	29.772 
19:15	83.4	83.4	84.8	52	63.9	0	2	270	0.00	29.764 
19:20	83.2	83.2	84.1	50	62.6	1	5	270	0.00	29.764 
19:25	83.0	83.0	83.9	50	62.4	0	1	292	0.00	29.764 
19:30	82.6	82.6	83.8	52	63.2	0	1	292	0.00	29.758 
19:35	82.4	82.4	83.7	53	63.5	0	1	292	0.00	29.758 
19:40	82.2	82.2	83.5	53	63.3	1	2	248	0.00	29.758 
19:45	82.0	82.0	83.2	53	63.2	0	2	248	0.00	29.756 
19:50	82.0	82.0	83.2	53	63.2	1	4	248	0.00	29.756 
19:55	82.0	82.0	83.4	54	63.7	0	1	225	0.00	29.756 
20:00	82.0	82.0	83.4	54	63.7	0	2	225	0.00	29.750 
20:05	82.0	82.0	83.4	54	63.7	0	2	225	0.00	29.750 
20:10	82.0	82.0	83.6	55	64.2	0	1	225	0.00	29.750 
20:15	81.8	81.8	83.3	55	64.0	0	0	---	0.00	29.737 
20:20	81.6	81.6	82.9	54	63.3	0	1	225	0.00	29.737 
20:25	81.4	81.4	82.7	54	63.1	0	1	225	0.00	29.737 
20:30	81.2	81.2	82.6	55	63.5	0	0	---	0.00	29.736 
20:35	81.1	81.1	82.5	55	63.4	0	0	---	0.00	29.736 
20:40	81.1	81.1	82.6	56	63.9	0	0	---	0.00	29.736 
20:45	80.9	80.9	82.5	57	64.2	0	0	---	0.00	29.735 
20:50	80.7	80.7	82.3	57	64.0	0	0	---	0.00	29.735 
20:55	80.5	80.5	82.1	57	63.8	0	0	---	0.00	29.735 
21:00	80.3	80.3	81.9	58	64.2	0	0	---	0.00	29.735 
21:05	80.1	80.1	81.7	58	64.0	0	0	---	0.00	29.735 
21:10	79.9	79.9	81.5	58	63.8	0	0	---	0.00	29.735 
21:15	79.8	79.8	81.5	59	64.2	0	0	---	0.00	29.733 
21:20	79.6	79.6	81.3	60	64.5	0	0	---	0.00	29.733 
21:25	79.6	79.6	81.4	61	64.9	0	0	---	0.00	29.733 
21:30	79.4	79.4	81.2	61	64.8	0	0	---	0.00	29.736 
21:35	79.2	79.2	81.1	62	65.0	0	0	---	0.00	29.736 
21:40	79.0	79.0	80.8	62	64.8	0	0	---	0.00	29.736 
21:45	78.8	78.8	80.6	62	64.7	0	0	---	0.00	29.742 
21:50	78.8	78.8	80.6	62	64.7	0	0	---	0.00	29.742 
21:55	78.8	78.8	80.7	63	65.1	0	0	---	0.00	29.742 
22:00	78.6	78.6	80.4	63	64.9	0	0	---	0.00	29.748 
22:05	78.6	78.6	80.4	63	64.9	0	0	---	0.00	29.748 
22:10	78.6	78.6	80.4	63	64.9	0	0	---	0.00	29.748 
22:15	78.5	78.5	80.3	63	64.8	0	0	---	0.00	29.748 
22:20	78.5	78.5	80.3	63	64.8	0	0	---	0.00	29.748 
22:25	78.5	78.5	80.3	63	64.8	0	0	---	0.00	29.748 
22:30	78.3	78.3	80.2	64	65.1	0	0	---	0.00	29.751 
22:35	78.1	78.1	79.9	64	64.9	0	0	---	0.00	29.751 
22:40	78.1	78.1	79.9	64	64.9	0	0	---	0.00	29.751 
22:45	77.9	77.9	79.7	64	64.7	0	0	---	0.00	29.749 
22:50	77.7	77.7	79.5	64	64.5	0	0	---	0.00	29.749 
22:55	77.7	77.7	79.5	64	64.5	0	0	---	0.00	29.749 
23:00	77.6	77.6	79.4	65	64.9	0	0	---	0.00	29.751 
23:05	77.4	77.4	79.2	65	64.7	0	0	---	0.00	29.751 
23:10	77.4	77.4	79.2	65	64.7	0	0	---	0.00	29.751 
23:15	77.2	77.2	79.0	66	64.9	0	0	---	0.00	29.746 
23:20	77.0	77.0	78.8	66	64.8	0	0	---	0.00	29.746 
23:25	77.0	77.0	78.8	66	64.8	0	0	---	0.00	29.746 
23:30	76.8	76.8	78.6	67	65.0	0	0	---	0.00	29.746 
23:35	76.7	76.7	78.5	67	64.9	0	0	---	0.00	29.746 
23:40	76.7	76.7	78.5	68	65.3	0	0	---	0.00	29.746 
23:45	76.5	76.5	78.2	69	65.6	0	0	---	0.00	29.748 
23:50	76.5	76.5	78.2	69	65.6	0	0	---	0.00	29.748 
23:55	76.3	76.3	78.0	68	64.9	0	1	225	0.00	29.748 

CoCoRaHS
IN-AL-39
A2 Web Hosting
Creative Commons License
GoDaddy
search engine by freefind advanced

loaded 2018-11-12 19:15:37 • last modified 2010-11-18 10:43:29
Privacy PolicyDisclaimer
• wx.awcolley.com is powered by PmWiki v.2002016 •
• all content (unless otherwise noted) © 2018 A W Colley